sensor_id;sensor_type;location;lat;lon;timestamp;temperature;humidity
2487;DHT22;1254;49.144;8.212;2022-07-19T00:02:05;20.20;99.90
2487;DHT22;1254;49.144;8.212;2022-07-19T00:04:33;20.20;99.90
2487;DHT22;1254;49.144;8.212;2022-07-19T00:07:00;20.20;99.90
2487;DHT22;1254;49.144;8.212;2022-07-19T00:09:26;20.20;99.90
2487;DHT22;1254;49.144;8.212;2022-07-19T00:11:54;20.00;99.90
2487;DHT22;1254;49.144;8.212;2022-07-19T00:14:21;19.70;99.90
2487;DHT22;1254;49.144;8.212;2022-07-19T00:16:48;19.60;99.90
2487;DHT22;1254;49.144;8.212;2022-07-19T00:19:15;19.60;99.90
2487;DHT22;1254;49.144;8.212;2022-07-19T00:21:41;19.60;99.90
2487;DHT22;1254;49.144;8.212;2022-07-19T00:24:08;19.70;99.90
2487;DHT22;1254;49.144;8.212;2022-07-19T00:26:35;19.80;99.90
2487;DHT22;1254;49.144;8.212;2022-07-19T00:29:01;19.80;99.90
2487;DHT22;1254;49.144;8.212;2022-07-19T00:31:28;19.90;99.90
2487;DHT22;1254;49.144;8.212;2022-07-19T00:33:56;19.80;99.90
2487;DHT22;1254;49.144;8.212;2022-07-19T00:36:22;19.70;99.90
2487;DHT22;1254;49.144;8.212;2022-07-19T00:38:49;19.50;99.90
2487;DHT22;1254;49.144;8.212;2022-07-19T00:41:15;19.60;99.90
2487;DHT22;1254;49.144;8.212;2022-07-19T00:43:43;19.70;99.90
2487;DHT22;1254;49.144;8.212;2022-07-19T00:46:17;19.70;99.90
2487;DHT22;1254;49.144;8.212;2022-07-19T00:48:44;19.80;99.90
2487;DHT22;1254;49.144;8.212;2022-07-19T00:51:12;19.80;99.90
2487;DHT22;1254;49.144;8.212;2022-07-19T00:53:39;19.90;99.90
2487;DHT22;1254;49.144;8.212;2022-07-19T00:56:07;20.00;99.90
2487;DHT22;1254;49.144;8.212;2022-07-19T00:58:36;20.00;99.90
2487;DHT22;1254;49.144;8.212;2022-07-19T01:01:04;19.90;99.90
2487;DHT22;1254;49.144;8.212;2022-07-19T01:03:35;19.90;99.90
2487;DHT22;1254;49.144;8.212;2022-07-19T01:06:02;19.90;99.90
2487;DHT22;1254;49.144;8.212;2022-07-19T01:08:28;19.70;99.90
2487;DHT22;1254;49.144;8.212;2022-07-19T01:10:55;19.50;99.90
2487;DHT22;1254;49.144;8.212;2022-07-19T01:13:22;19.30;99.90
2487;DHT22;1254;49.144;8.212;2022-07-19T01:15:49;19.20;99.90
2487;DHT22;1254;49.144;8.212;2022-07-19T01:18:16;19.20;99.90
2487;DHT22;1254;49.144;8.212;2022-07-19T01:20:42;19.30;99.90
2487;DHT22;1254;49.144;8.212;2022-07-19T01:23:08;19.30;99.90
2487;DHT22;1254;49.144;8.212;2022-07-19T01:25:36;19.20;99.90
2487;DHT22;1254;49.144;8.212;2022-07-19T01:28:05;19.40;99.90
2487;DHT22;1254;49.144;8.212;2022-07-19T01:30:32;19.50;99.90
2487;DHT22;1254;49.144;8.212;2022-07-19T01:32:59;19.70;99.90
2487;DHT22;1254;49.144;8.212;2022-07-19T01:35:26;19.70;99.90
2487;DHT22;1254;49.144;8.212;2022-07-19T01:37:53;19.80;99.90
2487;DHT22;1254;49.144;8.212;2022-07-19T01:40:20;19.80;99.90
2487;DHT22;1254;49.144;8.212;2022-07-19T01:42:48;19.80;99.90
2487;DHT22;1254;49.144;8.212;2022-07-19T01:45:15;19.80;99.90
2487;DHT22;1254;49.144;8.212;2022-07-19T01:47:42;19.80;99.90
2487;DHT22;1254;49.144;8.212;2022-07-19T01:50:11;19.80;99.90
2487;DHT22;1254;49.144;8.212;2022-07-19T01:52:39;19.80;99.90
2487;DHT22;1254;49.144;8.212;2022-07-19T01:55:06;19.80;99.90
2487;DHT22;1254;49.144;8.212;2022-07-19T01:57:33;19.80;99.90
2487;DHT22;1254;49.144;8.212;2022-07-19T01:59:59;19.80;99.90
2487;DHT22;1254;49.144;8.212;2022-07-19T02:02:26;19.80;99.90
2487;DHT22;1254;49.144;8.212;2022-07-19T02:04:52;19.80;99.90
2487;DHT22;1254;49.144;8.212;2022-07-19T02:07:18;19.80;99.90
2487;DHT22;1254;49.144;8.212;2022-07-19T02:09:45;19.80;99.90
2487;DHT22;1254;49.144;8.212;2022-07-19T02:12:11;19.90;99.90
2487;DHT22;1254;49.144;8.212;2022-07-19T02:14:38;19.80;99.90
2487;DHT22;1254;49.144;8.212;2022-07-19T02:17:04;19.90;99.90
2487;DHT22;1254;49.144;8.212;2022-07-19T02:19:31;19.90;99.90
2487;DHT22;1254;49.144;8.212;2022-07-19T02:21:58;19.80;99.90
2487;DHT22;1254;49.144;8.212;2022-07-19T02:24:24;19.90;99.90
2487;DHT22;1254;49.144;8.212;2022-07-19T02:26:50;19.90;99.90
2487;DHT22;1254;49.144;8.212;2022-07-19T02:29:17;19.80;99.90
2487;DHT22;1254;49.144;8.212;2022-07-19T02:31:43;19.80;99.90
2487;DHT22;1254;49.144;8.212;2022-07-19T02:34:10;19.70;99.90
2487;DHT22;1254;49.144;8.212;2022-07-19T02:36:37;19.70;99.90
2487;DHT22;1254;49.144;8.212;2022-07-19T02:39:03;19.60;99.90
2487;DHT22;1254;49.144;8.212;2022-07-19T02:41:30;19.70;99.90
2487;DHT22;1254;49.144;8.212;2022-07-19T02:43:57;19.70;99.90
2487;DHT22;1254;49.144;8.212;2022-07-19T02:46:24;19.70;99.90
2487;DHT22;1254;49.144;8.212;2022-07-19T02:48:50;19.50;99.90
2487;DHT22;1254;49.144;8.212;2022-07-19T02:51:17;19.40;99.90
2487;DHT22;1254;49.144;8.212;2022-07-19T02:53:43;19.40;99.90
2487;DHT22;1254;49.144;8.212;2022-07-19T02:56:09;19.50;99.90
2487;DHT22;1254;49.144;8.212;2022-07-19T02:58:36;19.60;99.90
2487;DHT22;1254;49.144;8.212;2022-07-19T03:01:02;19.60;99.90
2487;DHT22;1254;49.144;8.212;2022-07-19T03:03:29;19.60;99.90
2487;DHT22;1254;49.144;8.212;2022-07-19T03:06:11;19.60;99.90
2487;DHT22;1254;49.144;8.212;2022-07-19T03:08:39;19.60;99.90
2487;DHT22;1254;49.144;8.212;2022-07-19T03:11:05;19.60;99.90
2487;DHT22;1254;49.144;8.212;2022-07-19T03:13:32;19.50;99.90
2487;DHT22;1254;49.144;8.212;2022-07-19T03:15:58;19.40;99.90
2487;DHT22;1254;49.144;8.212;2022-07-19T03:18:25;19.40;99.90
2487;DHT22;1254;49.144;8.212;2022-07-19T03:20:51;19.40;99.90
2487;DHT22;1254;49.144;8.212;2022-07-19T03:23:18;19.40;99.90
2487;DHT22;1254;49.144;8.212;2022-07-19T03:25:44;19.40;99.90
2487;DHT22;1254;49.144;8.212;2022-07-19T03:28:11;19.40;99.90
2487;DHT22;1254;49.144;8.212;2022-07-19T03:30:37;19.50;99.90
2487;DHT22;1254;49.144;8.212;2022-07-19T03:33:04;19.50;99.90
2487;DHT22;1254;49.144;8.212;2022-07-19T03:35:30;19.40;99.90
2487;DHT22;1254;49.144;8.212;2022-07-19T03:37:57;19.40;99.90
2487;DHT22;1254;49.144;8.212;2022-07-19T03:40:23;19.40;99.90
2487;DHT22;1254;49.144;8.212;2022-07-19T03:42:49;19.40;99.90
2487;DHT22;1254;49.144;8.212;2022-07-19T03:45:16;19.30;99.90
2487;DHT22;1254;49.144;8.212;2022-07-19T03:47:42;19.30;99.90
2487;DHT22;1254;49.144;8.212;2022-07-19T03:50:09;19.30;99.90
2487;DHT22;1254;49.144;8.212;2022-07-19T03:52:35;19.40;99.90
2487;DHT22;1254;49.144;8.212;2022-07-19T03:55:02;19.50;99.90
2487;DHT22;1254;49.144;8.212;2022-07-19T03:57:29;19.50;99.90
2487;DHT22;1254;49.144;8.212;2022-07-19T03:59:55;19.50;99.90
2487;DHT22;1254;49.144;8.212;2022-07-19T04:02:21;19.50;99.90
2487;DHT22;1254;49.144;8.212;2022-07-19T04:04:48;19.50;99.90
2487;DHT22;1254;49.144;8.212;2022-07-19T04:07:14;19.50;99.90
2487;DHT22;1254;49.144;8.212;2022-07-19T04:09:41;19.50;99.90
2487;DHT22;1254;49.144;8.212;2022-07-19T04:12:07;19.60;99.90
2487;DHT22;1254;49.144;8.212;2022-07-19T04:14:34;19.60;99.90
2487;DHT22;1254;49.144;8.212;2022-07-19T04:17:00;19.60;99.90
2487;DHT22;1254;49.144;8.212;2022-07-19T04:19:26;19.70;99.90
2487;DHT22;1254;49.144;8.212;2022-07-19T04:21:53;19.70;99.90
2487;DHT22;1254;49.144;8.212;2022-07-19T04:24:19;19.80;99.90
2487;DHT22;1254;49.144;8.212;2022-07-19T04:26:46;19.90;99.90
2487;DHT22;1254;49.144;8.212;2022-07-19T04:29:12;20.00;99.90
2487;DHT22;1254;49.144;8.212;2022-07-19T04:31:38;20.10;99.90
2487;DHT22;1254;49.144;8.212;2022-07-19T04:34:05;20.20;99.90
2487;DHT22;1254;49.144;8.212;2022-07-19T04:36:32;20.20;99.90
2487;DHT22;1254;49.144;8.212;2022-07-19T04:38:58;20.20;99.90
2487;DHT22;1254;49.144;8.212;2022-07-19T04:41:25;20.20;99.90
2487;DHT22;1254;49.144;8.212;2022-07-19T04:43:51;20.10;99.90
2487;DHT22;1254;49.144;8.212;2022-07-19T04:46:17;20.10;99.90
2487;DHT22;1254;49.144;8.212;2022-07-19T04:48:44;20.10;99.90
2487;DHT22;1254;49.144;8.212;2022-07-19T04:51:10;20.20;99.90
2487;DHT22;1254;49.144;8.212;2022-07-19T04:53:38;20.20;99.90
2487;DHT22;1254;49.144;8.212;2022-07-19T04:56:04;20.30;99.90
2487;DHT22;1254;49.144;8.212;2022-07-19T04:58:31;20.40;99.90
2487;DHT22;1254;49.144;8.212;2022-07-19T05:00:57;20.50;99.90
2487;DHT22;1254;49.144;8.212;2022-07-19T05:03:24;20.50;99.90
2487;DHT22;1254;49.144;8.212;2022-07-19T05:05:50;20.60;99.90
2487;DHT22;1254;49.144;8.212;2022-07-19T05:08:16;20.70;99.90
2487;DHT22;1254;49.144;8.212;2022-07-19T05:10:43;20.80;99.90
2487;DHT22;1254;49.144;8.212;2022-07-19T05:13:10;20.90;99.90
2487;DHT22;1254;49.144;8.212;2022-07-19T05:15:36;21.00;99.90
2487;DHT22;1254;49.144;8.212;2022-07-19T05:18:03;21.20;99.90
2487;DHT22;1254;49.144;8.212;2022-07-19T05:20:29;21.30;99.90
2487;DHT22;1254;49.144;8.212;2022-07-19T05:22:56;21.30;99.90
2487;DHT22;1254;49.144;8.212;2022-07-19T05:25:22;21.30;99.90
2487;DHT22;1254;49.144;8.212;2022-07-19T05:27:49;21.40;99.90
2487;DHT22;1254;49.144;8.212;2022-07-19T05:30:16;21.50;99.90
2487;DHT22;1254;49.144;8.212;2022-07-19T05:32:42;21.60;99.90
2487;DHT22;1254;49.144;8.212;2022-07-19T05:35:09;21.80;99.90
2487;DHT22;1254;49.144;8.212;2022-07-19T05:37:36;21.80;99.90
2487;DHT22;1254;49.144;8.212;2022-07-19T05:40:02;21.80;99.90
2487;DHT22;1254;49.144;8.212;2022-07-19T05:42:29;21.80;99.90
2487;DHT22;1254;49.144;8.212;2022-07-19T05:44:55;21.90;99.90
2487;DHT22;1254;49.144;8.212;2022-07-19T05:47:22;22.00;99.90
2487;DHT22;1254;49.144;8.212;2022-07-19T05:49:48;22.00;99.90
2487;DHT22;1254;49.144;8.212;2022-07-19T05:52:15;22.00;99.90
2487;DHT22;1254;49.144;8.212;2022-07-19T05:54:41;22.10;99.90
2487;DHT22;1254;49.144;8.212;2022-07-19T05:57:07;22.30;99.90
2487;DHT22;1254;49.144;8.212;2022-07-19T05:59:34;22.40;99.90
2487;DHT22;1254;49.144;8.212;2022-07-19T06:02:02;22.50;99.90
2487;DHT22;1254;49.144;8.212;2022-07-19T06:04:29;22.60;99.90
2487;DHT22;1254;49.144;8.212;2022-07-19T06:06:55;22.60;99.90
2487;DHT22;1254;49.144;8.212;2022-07-19T06:09:22;22.70;99.90
2487;DHT22;1254;49.144;8.212;2022-07-19T06:11:48;22.80;99.90
2487;DHT22;1254;49.144;8.212;2022-07-19T06:14:16;23.00;99.90
2487;DHT22;1254;49.144;8.212;2022-07-19T06:16:42;23.10;99.90
2487;DHT22;1254;49.144;8.212;2022-07-19T06:19:09;23.10;99.90
2487;DHT22;1254;49.144;8.212;2022-07-19T06:21:38;23.00;99.90
2487;DHT22;1254;49.144;8.212;2022-07-19T06:24:05;23.20;99.90
2487;DHT22;1254;49.144;8.212;2022-07-19T06:26:31;23.40;99.90
2487;DHT22;1254;49.144;8.212;2022-07-19T06:28:58;23.50;99.90
2487;DHT22;1254;49.144;8.212;2022-07-19T06:31:24;23.60;99.90
2487;DHT22;1254;49.144;8.212;2022-07-19T06:33:52;23.70;99.90
2487;DHT22;1254;49.144;8.212;2022-07-19T06:36:19;24.00;99.90
2487;DHT22;1254;49.144;8.212;2022-07-19T06:38:47;24.00;99.90
2487;DHT22;1254;49.144;8.212;2022-07-19T06:41:14;24.00;99.90
2487;DHT22;1254;49.144;8.212;2022-07-19T06:43:41;24.00;99.90
2487;DHT22;1254;49.144;8.212;2022-07-19T06:46:08;24.10;99.90
2487;DHT22;1254;49.144;8.212;2022-07-19T06:48:35;24.30;99.90
2487;DHT22;1254;49.144;8.212;2022-07-19T06:51:02;24.40;99.90
2487;DHT22;1254;49.144;8.212;2022-07-19T06:53:28;24.30;99.90
2487;DHT22;1254;49.144;8.212;2022-07-19T06:55:55;24.40;99.90
2487;DHT22;1254;49.144;8.212;2022-07-19T06:58:21;24.50;99.90
2487;DHT22;1254;49.144;8.212;2022-07-19T07:00:48;24.70;99.90
2487;DHT22;1254;49.144;8.212;2022-07-19T07:03:15;24.90;99.90
2487;DHT22;1254;49.144;8.212;2022-07-19T07:05:44;25.00;99.90
2487;DHT22;1254;49.144;8.212;2022-07-19T07:08:10;25.30;99.90
2487;DHT22;1254;49.144;8.212;2022-07-19T07:10:36;25.40;99.90
2487;DHT22;1254;49.144;8.212;2022-07-19T07:13:06;25.50;99.90
2487;DHT22;1254;49.144;8.212;2022-07-19T07:15:32;25.30;99.90
2487;DHT22;1254;49.144;8.212;2022-07-19T07:17:59;25.50;99.90
2487;DHT22;1254;49.144;8.212;2022-07-19T07:20:25;25.70;99.90
2487;DHT22;1254;49.144;8.212;2022-07-19T07:22:52;25.80;99.90
2487;DHT22;1254;49.144;8.212;2022-07-19T07:25:18;26.00;99.90
2487;DHT22;1254;49.144;8.212;2022-07-19T07:27:45;26.10;99.90
2487;DHT22;1254;49.144;8.212;2022-07-19T07:30:12;26.10;99.90
2487;DHT22;1254;49.144;8.212;2022-07-19T07:32:38;26.30;99.90
2487;DHT22;1254;49.144;8.212;2022-07-19T07:35:05;26.60;99.90
2487;DHT22;1254;49.144;8.212;2022-07-19T07:37:31;26.70;99.90
2487;DHT22;1254;49.144;8.212;2022-07-19T07:39:58;26.90;99.90
2487;DHT22;1254;49.144;8.212;2022-07-19T07:42:24;26.70;99.90
2487;DHT22;1254;49.144;8.212;2022-07-19T07:44:51;26.90;99.90
2487;DHT22;1254;49.144;8.212;2022-07-19T07:47:18;27.00;99.90
2487;DHT22;1254;49.144;8.212;2022-07-19T07:49:45;27.00;99.90
2487;DHT22;1254;49.144;8.212;2022-07-19T07:52:12;27.10;99.90
2487;DHT22;1254;49.144;8.212;2022-07-19T07:54:38;27.20;99.90
2487;DHT22;1254;49.144;8.212;2022-07-19T07:57:05;27.10;99.90
2487;DHT22;1254;49.144;8.212;2022-07-19T07:59:31;27.30;99.90
2487;DHT22;1254;49.144;8.212;2022-07-19T08:01:58;27.50;99.90
2487;DHT22;1254;49.144;8.212;2022-07-19T08:04:25;27.80;99.90
2487;DHT22;1254;49.144;8.212;2022-07-19T08:06:52;28.00;99.90
2487;DHT22;1254;49.144;8.212;2022-07-19T08:09:18;28.10;99.90
2487;DHT22;1254;49.144;8.212;2022-07-19T08:11:45;27.80;99.90
2487;DHT22;1254;49.144;8.212;2022-07-19T08:14:11;28.00;99.90
2487;DHT22;1254;49.144;8.212;2022-07-19T08:16:38;28.00;99.90
2487;DHT22;1254;49.144;8.212;2022-07-19T08:19:04;28.10;99.90
2487;DHT22;1254;49.144;8.212;2022-07-19T08:21:31;28.30;99.90
2487;DHT22;1254;49.144;8.212;2022-07-19T08:23:57;28.50;99.90
2487;DHT22;1254;49.144;8.212;2022-07-19T08:26:23;28.60;99.90
2487;DHT22;1254;49.144;8.212;2022-07-19T08:28:50;28.70;99.90
2487;DHT22;1254;49.144;8.212;2022-07-19T08:31:16;28.60;99.90
2487;DHT22;1254;49.144;8.212;2022-07-19T08:33:43;28.80;99.90
2487;DHT22;1254;49.144;8.212;2022-07-19T08:36:09;29.10;99.90
2487;DHT22;1254;49.144;8.212;2022-07-19T08:38:38;28.80;99.90
2487;DHT22;1254;49.144;8.212;2022-07-19T08:41:05;29.10;99.90
2487;DHT22;1254;49.144;8.212;2022-07-19T08:43:32;29.30;99.90
2487;DHT22;1254;49.144;8.212;2022-07-19T08:46:00;29.40;99.90
2487;DHT22;1254;49.144;8.212;2022-07-19T08:48:34;29.60;99.90
2487;DHT22;1254;49.144;8.212;2022-07-19T08:51:03;29.80;99.90
2487;DHT22;1254;49.144;8.212;2022-07-19T08:53:32;29.70;99.90
2487;DHT22;1254;49.144;8.212;2022-07-19T08:55:59;29.70;99.90
2487;DHT22;1254;49.144;8.212;2022-07-19T08:58:26;30.00;99.90
2487;DHT22;1254;49.144;8.212;2022-07-19T09:00:53;30.20;99.90
2487;DHT22;1254;49.144;8.212;2022-07-19T09:03:19;30.40;99.90
2487;DHT22;1254;49.144;8.212;2022-07-19T09:05:46;30.00;99.90
2487;DHT22;1254;49.144;8.212;2022-07-19T09:08:16;30.20;99.90
2487;DHT22;1254;49.144;8.212;2022-07-19T09:10:48;30.40;99.90
2487;DHT22;1254;49.144;8.212;2022-07-19T09:13:35;30.50;99.90
2487;DHT22;1254;49.144;8.212;2022-07-19T09:16:02;30.60;99.90
2487;DHT22;1254;49.144;8.212;2022-07-19T09:18:33;30.90;99.90
2487;DHT22;1254;49.144;8.212;2022-07-19T09:21:02;30.80;99.90
2487;DHT22;1254;49.144;8.212;2022-07-19T09:23:30;30.80;99.90
2487;DHT22;1254;49.144;8.212;2022-07-19T09:26:06;30.80;99.90
2487;DHT22;1254;49.144;8.212;2022-07-19T09:28:33;30.90;99.90
2487;DHT22;1254;49.144;8.212;2022-07-19T09:31:00;31.30;99.90
2487;DHT22;1254;49.144;8.212;2022-07-19T09:33:31;31.50;99.90
2487;DHT22;1254;49.144;8.212;2022-07-19T09:36:00;31.50;99.90
2487;DHT22;1254;49.144;8.212;2022-07-19T09:38:29;31.10;99.90
2487;DHT22;1254;49.144;8.212;2022-07-19T09:41:11;31.50;99.90
2487;DHT22;1254;49.144;8.212;2022-07-19T09:43:58;31.70;99.90
2487;DHT22;1254;49.144;8.212;2022-07-19T09:46:51;31.70;99.90
2487;DHT22;1254;49.144;8.212;2022-07-19T09:49:18;32.00;99.90
2487;DHT22;1254;49.144;8.212;2022-07-19T09:51:53;32.30;99.90
2487;DHT22;1254;49.144;8.212;2022-07-19T09:54:25;32.30;99.90
2487;DHT22;1254;49.144;8.212;2022-07-19T09:56:53;32.40;99.90
2487;DHT22;1254;49.144;8.212;2022-07-19T09:59:21;32.70;99.90
2487;DHT22;1254;49.144;8.212;2022-07-19T10:01:51;32.60;99.90
2487;DHT22;1254;49.144;8.212;2022-07-19T10:04:19;32.70;99.90
2487;DHT22;1254;49.144;8.212;2022-07-19T10:06:48;32.70;99.90
2487;DHT22;1254;49.144;8.212;2022-07-19T10:09:17;32.90;99.90
2487;DHT22;1254;49.144;8.212;2022-07-19T10:11:44;33.00;99.90
2487;DHT22;1254;49.144;8.212;2022-07-19T10:14:11;33.10;99.90
2487;DHT22;1254;49.144;8.212;2022-07-19T10:22:09;32.90;99.90
2487;DHT22;1254;49.144;8.212;2022-07-19T10:24:55;32.90;99.90
2487;DHT22;1254;49.144;8.212;2022-07-19T10:29:52;33.30;99.90
2487;DHT22;1254;49.144;8.212;2022-07-19T10:32:47;33.40;99.90
2487;DHT22;1254;49.144;8.212;2022-07-19T10:40:43;34.00;99.90
2487;DHT22;1254;49.144;8.212;2022-07-19T10:43:11;34.10;99.90
2487;DHT22;1254;49.144;8.212;2022-07-19T10:48:47;34.00;1.00
2487;DHT22;1254;49.144;8.212;2022-07-19T10:51:34;34.30;1.00
2487;DHT22;1254;49.144;8.212;2022-07-19T10:54:03;34.30;1.00
2487;DHT22;1254;49.144;8.212;2022-07-19T10:56:57;34.20;1.00
2487;DHT22;1254;49.144;8.212;2022-07-19T10:59:32;34.40;1.00
2487;DHT22;1254;49.144;8.212;2022-07-19T11:02:00;34.30;1.00
2487;DHT22;1254;49.144;8.212;2022-07-19T11:04:33;34.60;1.00
2487;DHT22;1254;49.144;8.212;2022-07-19T11:07:13;34.70;1.00
2487;DHT22;1254;49.144;8.212;2022-07-19T11:09:46;35.00;1.00
2487;DHT22;1254;49.144;8.212;2022-07-19T11:12:36;35.00;1.00
2487;DHT22;1254;49.144;8.212;2022-07-19T11:15:05;35.20;1.00
2487;DHT22;1254;49.144;8.212;2022-07-19T11:17:32;34.70;1.00
2487;DHT22;1254;49.144;8.212;2022-07-19T11:22:32;34.50;1.00
2487;DHT22;1254;49.144;8.212;2022-07-19T11:24:59;34.30;1.00
2487;DHT22;1254;49.144;8.212;2022-07-19T11:27:25;34.50;1.00
2487;DHT22;1254;49.144;8.212;2022-07-19T11:29:59;35.30;1.00
2487;DHT22;1254;49.144;8.212;2022-07-19T11:32:26;35.50;1.00
2487;DHT22;1254;49.144;8.212;2022-07-19T11:34:58;35.80;1.00
2487;DHT22;1254;49.144;8.212;2022-07-19T11:37:29;36.00;1.00
2487;DHT22;1254;49.144;8.212;2022-07-19T11:39:56;36.80;1.00
2487;DHT22;1254;49.144;8.212;2022-07-19T11:42:31;36.30;1.00
2487;DHT22;1254;49.144;8.212;2022-07-19T11:44:59;36.00;1.00
2487;DHT22;1254;49.144;8.212;2022-07-19T11:47:33;36.10;1.00
2487;DHT22;1254;49.144;8.212;2022-07-19T11:50:04;36.30;1.00
2487;DHT22;1254;49.144;8.212;2022-07-19T11:55:16;36.40;1.00
2487;DHT22;1254;49.144;8.212;2022-07-19T11:57:43;36.80;1.00
2487;DHT22;1254;49.144;8.212;2022-07-19T12:00:10;36.90;1.00
2487;DHT22;1254;49.144;8.212;2022-07-19T12:02:58;36.90;1.00
2487;DHT22;1254;49.144;8.212;2022-07-19T12:05:31;37.00;1.00
2487;DHT22;1254;49.144;8.212;2022-07-19T12:08:01;37.70;1.00
2487;DHT22;1254;49.144;8.212;2022-07-19T12:10:34;36.90;1.00
2487;DHT22;1254;49.144;8.212;2022-07-19T12:13:03;37.10;1.00
2487;DHT22;1254;49.144;8.212;2022-07-19T12:15:47;36.50;1.00
2487;DHT22;1254;49.144;8.212;2022-07-19T12:18:20;36.90;1.00
2487;DHT22;1254;49.144;8.212;2022-07-19T12:24:11;37.80;1.00
2487;DHT22;1254;49.144;8.212;2022-07-19T12:27:00;38.40;1.00
2487;DHT22;1254;49.144;8.212;2022-07-19T12:29:47;38.30;1.00
2487;DHT22;1254;49.144;8.212;2022-07-19T12:32:16;38.30;1.00
2487;DHT22;1254;49.144;8.212;2022-07-19T12:34:55;38.30;1.00
2487;DHT22;1254;49.144;8.212;2022-07-19T12:37:36;38.60;1.00
2487;DHT22;1254;49.144;8.212;2022-07-19T12:40:07;39.60;1.00
2487;DHT22;1254;49.144;8.212;2022-07-19T12:42:51;39.10;1.00
2487;DHT22;1254;49.144;8.212;2022-07-19T12:45:30;38.30;1.00
2487;DHT22;1254;49.144;8.212;2022-07-19T12:47:57;38.20;1.00
2487;DHT22;1254;49.144;8.212;2022-07-19T12:50:32;38.50;1.00
2487;DHT22;1254;49.144;8.212;2022-07-19T12:53:00;39.10;1.00
2487;DHT22;1254;49.144;8.212;2022-07-19T12:55:29;38.20;1.00
2487;DHT22;1254;49.144;8.212;2022-07-19T12:57:56;38.40;1.00
2487;DHT22;1254;49.144;8.212;2022-07-19T13:00:25;39.10;1.00
2487;DHT22;1254;49.144;8.212;2022-07-19T13:02:52;39.50;1.00
2487;DHT22;1254;49.144;8.212;2022-07-19T13:05:20;39.70;1.00
2487;DHT22;1254;49.144;8.212;2022-07-19T13:07:47;40.10;1.00
2487;DHT22;1254;49.144;8.212;2022-07-19T13:10:14;40.30;1.00
2487;DHT22;1254;49.144;8.212;2022-07-19T13:12:41;39.70;1.00
2487;DHT22;1254;49.144;8.212;2022-07-19T13:15:09;39.50;1.00
2487;DHT22;1254;49.144;8.212;2022-07-19T13:17:36;40.20;1.00
2487;DHT22;1254;49.144;8.212;2022-07-19T13:20:03;40.80;1.00
2487;DHT22;1254;49.144;8.212;2022-07-19T13:22:32;40.20;1.00
2487;DHT22;1254;49.144;8.212;2022-07-19T13:24:58;40.00;1.00
2487;DHT22;1254;49.144;8.212;2022-07-19T13:27:25;40.60;1.00
2487;DHT22;1254;49.144;8.212;2022-07-19T13:29:52;40.20;1.00
2487;DHT22;1254;49.144;8.212;2022-07-19T13:32:18;40.70;1.00
2487;DHT22;1254;49.144;8.212;2022-07-19T13:34:45;40.80;1.00
2487;DHT22;1254;49.144;8.212;2022-07-19T13:37:11;40.70;1.00
2487;DHT22;1254;49.144;8.212;2022-07-19T13:39:38;40.90;1.00
2487;DHT22;1254;49.144;8.212;2022-07-19T13:42:04;40.90;1.00
2487;DHT22;1254;49.144;8.212;2022-07-19T13:44:31;39.90;1.00
2487;DHT22;1254;49.144;8.212;2022-07-19T13:46:58;40.80;1.00
2487;DHT22;1254;49.144;8.212;2022-07-19T13:49:24;41.30;1.00
2487;DHT22;1254;49.144;8.212;2022-07-19T13:51:51;41.40;1.00
2487;DHT22;1254;49.144;8.212;2022-07-19T13:54:18;41.40;1.00
2487;DHT22;1254;49.144;8.212;2022-07-19T13:56:44;41.90;1.00
2487;DHT22;1254;49.144;8.212;2022-07-19T13:59:11;41.40;1.00
2487;DHT22;1254;49.144;8.212;2022-07-19T14:01:37;41.60;1.00
2487;DHT22;1254;49.144;8.212;2022-07-19T14:04:04;41.50;1.00
2487;DHT22;1254;49.144;8.212;2022-07-19T14:06:30;41.30;1.00
2487;DHT22;1254;49.144;8.212;2022-07-19T14:08:57;41.60;1.00
2487;DHT22;1254;49.144;8.212;2022-07-19T14:11:24;42.30;1.00
2487;DHT22;1254;49.144;8.212;2022-07-19T14:13:50;41.90;1.00
2487;DHT22;1254;49.144;8.212;2022-07-19T14:16:17;42.40;1.00
2487;DHT22;1254;49.144;8.212;2022-07-19T14:18:44;43.00;1.00
2487;DHT22;1254;49.144;8.212;2022-07-19T14:21:10;41.70;1.00
2487;DHT22;1254;49.144;8.212;2022-07-19T14:23:37;41.40;1.00
2487;DHT22;1254;49.144;8.212;2022-07-19T14:26:04;41.30;1.00
2487;DHT22;1254;49.144;8.212;2022-07-19T14:28:30;41.70;1.00
2487;DHT22;1254;49.144;8.212;2022-07-19T14:30:57;41.20;1.00
2487;DHT22;1254;49.144;8.212;2022-07-19T14:33:23;41.10;1.00
2487;DHT22;1254;49.144;8.212;2022-07-19T14:35:49;42.20;1.00
2487;DHT22;1254;49.144;8.212;2022-07-19T14:38:16;42.00;1.00
2487;DHT22;1254;49.144;8.212;2022-07-19T14:40:42;42.40;1.00
2487;DHT22;1254;49.144;8.212;2022-07-19T14:43:09;42.00;1.00
2487;DHT22;1254;49.144;8.212;2022-07-19T14:45:35;42.40;1.00
2487;DHT22;1254;49.144;8.212;2022-07-19T14:48:02;42.80;1.00
2487;DHT22;1254;49.144;8.212;2022-07-19T14:50:29;42.60;1.00
2487;DHT22;1254;49.144;8.212;2022-07-19T14:52:55;41.80;1.00
2487;DHT22;1254;49.144;8.212;2022-07-19T14:55:22;42.40;1.00
2487;DHT22;1254;49.144;8.212;2022-07-19T14:57:48;42.50;1.00
2487;DHT22;1254;49.144;8.212;2022-07-19T15:00:15;42.50;1.00
2487;DHT22;1254;49.144;8.212;2022-07-19T15:02:41;42.20;1.00
2487;DHT22;1254;49.144;8.212;2022-07-19T15:05:08;41.80;1.00
2487;DHT22;1254;49.144;8.212;2022-07-19T15:07:35;42.60;1.00
2487;DHT22;1254;49.144;8.212;2022-07-19T15:10:02;41.80;1.00
2487;DHT22;1254;49.144;8.212;2022-07-19T15:12:29;41.90;1.00
2487;DHT22;1254;49.144;8.212;2022-07-19T15:14:55;42.20;1.00
2487;DHT22;1254;49.144;8.212;2022-07-19T15:17:22;41.60;1.00
2487;DHT22;1254;49.144;8.212;2022-07-19T15:19:48;42.10;1.00
2487;DHT22;1254;49.144;8.212;2022-07-19T15:22:15;42.80;1.00
2487;DHT22;1254;49.144;8.212;2022-07-19T15:24:42;43.10;1.00
2487;DHT22;1254;49.144;8.212;2022-07-19T15:27:08;42.60;1.00
2487;DHT22;1254;49.144;8.212;2022-07-19T15:29:35;42.60;1.00
2487;DHT22;1254;49.144;8.212;2022-07-19T15:32:01;42.70;1.00
2487;DHT22;1254;49.144;8.212;2022-07-19T15:34:28;43.40;1.00
2487;DHT22;1254;49.144;8.212;2022-07-19T15:36:54;43.00;1.00
2487;DHT22;1254;49.144;8.212;2022-07-19T15:39:21;43.10;1.00
2487;DHT22;1254;49.144;8.212;2022-07-19T15:41:47;43.10;1.00
2487;DHT22;1254;49.144;8.212;2022-07-19T15:44:14;43.70;1.00
2487;DHT22;1254;49.144;8.212;2022-07-19T15:46:40;43.40;1.00
2487;DHT22;1254;49.144;8.212;2022-07-19T15:49:07;43.00;1.00
2487;DHT22;1254;49.144;8.212;2022-07-19T15:51:33;41.90;1.00
2487;DHT22;1254;49.144;8.212;2022-07-19T15:54:00;42.90;1.00
2487;DHT22;1254;49.144;8.212;2022-07-19T15:56:27;43.00;1.00
2487;DHT22;1254;49.144;8.212;2022-07-19T15:58:53;42.10;1.00
2487;DHT22;1254;49.144;8.212;2022-07-19T16:01:20;41.80;1.00
2487;DHT22;1254;49.144;8.212;2022-07-19T16:03:47;42.70;1.00
2487;DHT22;1254;49.144;8.212;2022-07-19T16:06:14;43.50;1.00
2487;DHT22;1254;49.144;8.212;2022-07-19T16:08:40;43.30;1.00
2487;DHT22;1254;49.144;8.212;2022-07-19T16:11:07;42.70;1.00
2487;DHT22;1254;49.144;8.212;2022-07-19T16:13:33;43.30;1.00
2487;DHT22;1254;49.144;8.212;2022-07-19T16:16:00;43.40;1.00
2487;DHT22;1254;49.144;8.212;2022-07-19T16:18:26;41.90;1.00
2487;DHT22;1254;49.144;8.212;2022-07-19T16:20:53;42.40;1.00
2487;DHT22;1254;49.144;8.212;2022-07-19T16:23:19;41.50;1.00
2487;DHT22;1254;49.144;8.212;2022-07-19T16:25:46;41.80;1.00
2487;DHT22;1254;49.144;8.212;2022-07-19T16:28:15;41.80;1.00
2487;DHT22;1254;49.144;8.212;2022-07-19T16:30:41;42.00;1.00
2487;DHT22;1254;49.144;8.212;2022-07-19T16:33:08;43.10;1.00
2487;DHT22;1254;49.144;8.212;2022-07-19T16:35:35;42.90;1.00
2487;DHT22;1254;49.144;8.212;2022-07-19T16:38:02;42.60;1.00